sensor_id;sensor_type;location;lat;lon;timestamp;pressure;altitude;pressure_sealevel;temperature;humidity
26978;BME280;56314;48.088;11.642;2024-02-26T00:02:16;93721.28;;;2.53;82.65
26978;BME280;56314;48.088;11.642;2024-02-26T00:04:41;93721.00;;;2.45;82.93
26978;BME280;56314;48.088;11.642;2024-02-26T00:07:06;93714.69;;;2.49;82.63
26978;BME280;56314;48.088;11.642;2024-02-26T00:09:32;93712.09;;;2.49;82.30
26978;BME280;56314;48.088;11.642;2024-02-26T00:12:01;93712.91;;;2.50;81.99
26978;BME280;56314;48.088;11.642;2024-02-26T00:14:29;93711.75;;;2.54;82.52
26978;BME280;56314;48.088;11.642;2024-02-26T00:16:54;93710.31;;;2.50;82.39
26978;BME280;56314;48.088;11.642;2024-02-26T00:19:20;93715.81;;;2.45;82.43
26978;BME280;56314;48.088;11.642;2024-02-26T00:21:45;93715.41;;;2.51;81.60
26978;BME280;56314;48.088;11.642;2024-02-26T00:24:11;93713.50;;;2.53;81.22
26978;BME280;56314;48.088;11.642;2024-02-26T00:26:36;93719.13;;;2.47;80.85
26978;BME280;56314;48.088;11.642;2024-02-26T00:29:01;93714.91;;;2.46;80.72
26978;BME280;56314;48.088;11.642;2024-02-26T00:31:27;93712.41;;;2.44;80.96
26978;BME280;56314;48.088;11.642;2024-02-26T00:33:52;93707.34;;;2.43;81.28
26978;BME280;56314;48.088;11.642;2024-02-26T00:36:17;93700.84;;;2.37;81.66
26978;BME280;56314;48.088;11.642;2024-02-26T00:38:44;93704.34;;;2.36;81.34
26978;BME280;56314;48.088;11.642;2024-02-26T00:41:11;93700.75;;;2.39;80.41
26978;BME280;56314;48.088;11.642;2024-02-26T00:43:36;93699.19;;;2.36;80.36
26978;BME280;56314;48.088;11.642;2024-02-26T00:46:04;93698.25;;;2.37;80.14
26978;BME280;56314;48.088;11.642;2024-02-26T00:48:30;93693.66;;;2.41;80.12
26978;BME280;56314;48.088;11.642;2024-02-26T00:50:55;93695.31;;;2.42;79.58
26978;BME280;56314;48.088;11.642;2024-02-26T00:53:20;93701.56;;;2.39;79.87
26978;BME280;56314;48.088;11.642;2024-02-26T00:55:46;93695.56;;;2.39;80.44
26978;BME280;56314;48.088;11.642;2024-02-26T00:58:11;93696.25;;;2.41;80.00
26978;BME280;56314;48.088;11.642;2024-02-26T01:00:37;93696.75;;;2.46;79.30
26978;BME280;56314;48.088;11.642;2024-02-26T01:03:02;93702.28;;;2.41;79.32
26978;BME280;56314;48.088;11.642;2024-02-26T01:05:29;93697.09;;;2.41;79.15
26978;BME280;56314;48.088;11.642;2024-02-26T01:07:54;93690.59;;;2.36;79.02
26978;BME280;56314;48.088;11.642;2024-02-26T01:10:19;93687.28;;;2.34;78.85
26978;BME280;56314;48.088;11.642;2024-02-26T01:12:45;93693.13;;;2.24;79.07
26978;BME280;56314;48.088;11.642;2024-02-26T01:15:10;93696.16;;;2.18;79.55
26978;BME280;56314;48.088;11.642;2024-02-26T01:17:35;93690.16;;;2.18;80.00
26978;BME280;56314;48.088;11.642;2024-02-26T01:20:01;93686.50;;;2.20;79.75
26978;BME280;56314;48.088;11.642;2024-02-26T01:22:26;93687.78;;;2.14;80.29
26978;BME280;56314;48.088;11.642;2024-02-26T01:24:51;93688.72;;;2.13;80.19
26978;BME280;56314;48.088;11.642;2024-02-26T01:27:17;93687.91;;;2.13;80.07
26978;BME280;56314;48.088;11.642;2024-02-26T01:29:42;93691.41;;;2.12;79.37
26978;BME280;56314;48.088;11.642;2024-02-26T01:32:08;93686.13;;;2.13;79.71
26978;BME280;56314;48.088;11.642;2024-02-26T01:34:33;93690.56;;;2.11;78.93
26978;BME280;56314;48.088;11.642;2024-02-26T01:36:59;93687.50;;;2.06;79.28
26978;BME280;56314;48.088;11.642;2024-02-26T01:39:25;93687.00;;;2.01;80.14
26978;BME280;56314;48.088;11.642;2024-02-26T01:41:52;93683.59;;;2.00;78.68
26978;BME280;56314;48.088;11.642;2024-02-26T01:44:18;93692.41;;;1.98;78.91
26978;BME280;56314;48.088;11.642;2024-02-26T01:46:43;93686.84;;;1.91;79.40
26978;BME280;56314;48.088;11.642;2024-02-26T01:49:11;93687.44;;;1.95;80.07
26978;BME280;56314;48.088;11.642;2024-02-26T01:51:39;93686.59;;;1.94;80.42
26978;BME280;56314;48.088;11.642;2024-02-26T01:54:05;93688.03;;;1.98;79.57
26978;BME280;56314;48.088;11.642;2024-02-26T01:56:32;93683.91;;;1.96;79.27
26978;BME280;56314;48.088;11.642;2024-02-26T01:58:58;93689.31;;;1.93;79.74
26978;BME280;56314;48.088;11.642;2024-02-26T02:01:30;93686.00;;;1.91;79.48
26978;BME280;56314;48.088;11.642;2024-02-26T02:03:58;93679.75;;;1.93;79.35
26978;BME280;56314;48.088;11.642;2024-02-26T02:06:23;93670.91;;;1.84;78.92
26978;BME280;56314;48.088;11.642;2024-02-26T02:08:49;93669.47;;;1.80;79.24
26978;BME280;56314;48.088;11.642;2024-02-26T02:11:14;93666.16;;;1.78;79.13
26978;BME280;56314;48.088;11.642;2024-02-26T02:13:40;93659.84;;;1.82;78.90
26978;BME280;56314;48.088;11.642;2024-02-26T02:16:06;93672.56;;;1.86;78.59
26978;BME280;56314;48.088;11.642;2024-02-26T02:18:32;93663.41;;;1.93;78.76
26978;BME280;56314;48.088;11.642;2024-02-26T02:21:00;93658.44;;;1.90;77.77
26978;BME280;56314;48.088;11.642;2024-02-26T02:23:25;93651.63;;;1.89;78.23
26978;BME280;56314;48.088;11.642;2024-02-26T02:25:51;93659.84;;;1.82;78.31
26978;BME280;56314;48.088;11.642;2024-02-26T02:28:17;93664.63;;;1.76;78.24
26978;BME280;56314;48.088;11.642;2024-02-26T02:30:42;93660.38;;;1.75;78.18
26978;BME280;56314;48.088;11.642;2024-02-26T02:33:08;93660.78;;;1.68;77.62
26978;BME280;56314;48.088;11.642;2024-02-26T02:35:33;93662.69;;;1.66;78.34
26978;BME280;56314;48.088;11.642;2024-02-26T02:37:58;93657.06;;;1.73;78.96
26978;BME280;56314;48.088;11.642;2024-02-26T02:40:24;93658.00;;;1.72;78.13
26978;BME280;56314;48.088;11.642;2024-02-26T02:42:49;93653.81;;;1.82;77.49
26978;BME280;56314;48.088;11.642;2024-02-26T02:45:15;93654.66;;;1.82;77.28
26978;BME280;56314;48.088;11.642;2024-02-26T02:47:40;93654.16;;;1.77;77.97
26978;BME280;56314;48.088;11.642;2024-02-26T02:50:06;93660.25;;;1.76;77.17
26978;BME280;56314;48.088;11.642;2024-02-26T02:52:31;93658.28;;;1.80;77.35
26978;BME280;56314;48.088;11.642;2024-02-26T02:54:58;93656.84;;;1.76;77.44
26978;BME280;56314;48.088;11.642;2024-02-26T02:57:23;93672.19;;;1.66;77.17
26978;BME280;56314;48.088;11.642;2024-02-26T02:59:48;93654.91;;;1.66;77.56
26978;BME280;56314;48.088;11.642;2024-02-26T03:02:14;93668.47;;;1.70;77.56
26978;BME280;56314;48.088;11.642;2024-02-26T03:04:39;93667.63;;;1.69;77.36
26978;BME280;56314;48.088;11.642;2024-02-26T03:07:04;93666.81;;;1.69;77.01
26978;BME280;56314;48.088;11.642;2024-02-26T03:09:30;93661.22;;;1.62;77.09
26978;BME280;56314;48.088;11.642;2024-02-26T03:11:55;93661.09;;;1.64;77.39
26978;BME280;56314;48.088;11.642;2024-02-26T03:14:21;93656.56;;;1.67;76.75
26978;BME280;56314;48.088;11.642;2024-02-26T03:16:46;93657.91;;;1.73;76.53
26978;BME280;56314;48.088;11.642;2024-02-26T03:19:14;93651.69;;;1.76;76.73
26978;BME280;56314;48.088;11.642;2024-02-26T03:21:40;93644.13;;;1.73;76.62
26978;BME280;56314;48.088;11.642;2024-02-26T03:24:06;93638.13;;;1.72;76.62
26978;BME280;56314;48.088;11.642;2024-02-26T03:26:31;93643.84;;;1.64;76.72
26978;BME280;56314;48.088;11.642;2024-02-26T03:28:56;93652.22;;;1.68;75.56
26978;BME280;56314;48.088;11.642;2024-02-26T03:31:22;93650.03;;;1.75;76.58
26978;BME280;56314;48.088;11.642;2024-02-26T03:33:47;93641.31;;;1.76;75.88
26978;BME280;56314;48.088;11.642;2024-02-26T03:36:12;93639.88;;;1.72;76.06
26978;BME280;56314;48.088;11.642;2024-02-26T03:38:38;93648.25;;;1.75;76.04
26978;BME280;56314;48.088;11.642;2024-02-26T03:41:04;93647.94;;;1.80;75.10
26978;BME280;56314;48.088;11.642;2024-02-26T03:43:29;93650.28;;;1.83;74.66
26978;BME280;56314;48.088;11.642;2024-02-26T03:45:54;93654.75;;;1.81;75.66
26978;BME280;56314;48.088;11.642;2024-02-26T03:48:20;93650.91;;;1.87;75.45
26978;BME280;56314;48.088;11.642;2024-02-26T03:50:45;93651.75;;;1.87;74.21
26978;BME280;56314;48.088;11.642;2024-02-26T03:53:10;93655.25;;;1.86;74.26
26978;BME280;56314;48.088;11.642;2024-02-26T03:55:37;93651.94;;;1.84;75.42
26978;BME280;56314;48.088;11.642;2024-02-26T03:58:03;93647.69;;;1.83;74.77
26978;BME280;56314;48.088;11.642;2024-02-26T04:00:28;93644.19;;;1.84;73.97
26978;BME280;56314;48.088;11.642;2024-02-26T04:02:55;93639.13;;;1.82;74.07
26978;BME280;56314;48.088;11.642;2024-02-26T04:05:21;93639.47;;;1.78;75.39
26978;BME280;56314;48.088;11.642;2024-02-26T04:07:46;93636.97;;;1.76;75.65
26978;BME280;56314;48.088;11.642;2024-02-26T04:10:12;93645.78;;;1.74;75.38
26978;BME280;56314;48.088;11.642;2024-02-26T04:12:41;93643.91;;;1.76;75.41
26978;BME280;56314;48.088;11.642;2024-02-26T04:15:10;93639.22;;;1.81;74.68
26978;BME280;56314;48.088;11.642;2024-02-26T04:17:36;93645.34;;;1.80;74.75
26978;BME280;56314;48.088;11.642;2024-02-26T04:20:03;93643.78;;;1.77;74.49
26978;BME280;56314;48.088;11.642;2024-02-26T04:22:28;93643.31;;;1.72;75.13
26978;BME280;56314;48.088;11.642;2024-02-26T04:24:54;93645.78;;;1.74;73.79
26978;BME280;56314;48.088;11.642;2024-02-26T04:27:19;93642.47;;;1.72;73.94
26978;BME280;56314;48.088;11.642;2024-02-26T04:29:45;93649.91;;;1.76;74.00
26978;BME280;56314;48.088;11.642;2024-02-26T04:32:10;93651.28;;;1.69;74.07
26978;BME280;56314;48.088;11.642;2024-02-26T04:34:35;93655.72;;;1.67;74.03
26978;BME280;56314;48.088;11.642;2024-02-26T04:37:01;93651.16;;;1.71;73.72
26978;BME280;56314;48.088;11.642;2024-02-26T04:39:26;93660.50;;;1.73;73.48
26978;BME280;56314;48.088;11.642;2024-02-26T04:41:51;93667.00;;;1.66;73.55
26978;BME280;56314;48.088;11.642;2024-02-26T04:44:17;93668.47;;;1.70;73.44
26978;BME280;56314;48.088;11.642;2024-02-26T04:46:42;93661.94;;;1.64;72.89
26978;BME280;56314;48.088;11.642;2024-02-26T04:49:08;93662.88;;;1.63;73.39
26978;BME280;56314;48.088;11.642;2024-02-26T04:51:34;93662.88;;;1.63;73.13
26978;BME280;56314;48.088;11.642;2024-02-26T04:53:59;93661.03;;;1.65;72.19
26978;BME280;56314;48.088;11.642;2024-02-26T04:56:25;93661.03;;;1.65;72.46
26978;BME280;56314;48.088;11.642;2024-02-26T04:58:50;93657.50;;;1.66;72.42
26978;BME280;56314;48.088;11.642;2024-02-26T05:01:16;93658.53;;;1.64;72.34
26978;BME280;56314;48.088;11.642;2024-02-26T05:03:42;93647.38;;;1.63;72.57
26978;BME280;56314;48.088;11.642;2024-02-26T05:06:08;93652.75;;;1.60;72.64
26978;BME280;56314;48.088;11.642;2024-02-26T05:08:34;93651.81;;;1.61;72.82
26978;BME280;56314;48.088;11.642;2024-02-26T05:11:01;93651.94;;;1.60;72.24
26978;BME280;56314;48.088;11.642;2024-02-26T05:13:28;93637.63;;;1.67;70.86
26978;BME280;56314;48.088;11.642;2024-02-26T05:15:53;93638.34;;;1.69;71.22
26978;BME280;56314;48.088;11.642;2024-02-26T05:18:18;93638.00;;;1.74;72.18
26978;BME280;56314;48.088;11.642;2024-02-26T05:20:44;93635.94;;;1.79;71.10
26978;BME280;56314;48.088;11.642;2024-02-26T05:23:09;93647.81;;;1.81;70.87
26978;BME280;56314;48.088;11.642;2024-02-26T05:25:35;93657.66;;;1.76;71.52
26978;BME280;56314;48.088;11.642;2024-02-26T05:28:00;93657.06;;;1.73;71.02
26978;BME280;56314;48.088;11.642;2024-02-26T05:30:26;93657.06;;;1.73;72.91
26978;BME280;56314;48.088;11.642;2024-02-26T05:32:53;93662.56;;;1.68;74.85
26978;BME280;56314;48.088;11.642;2024-02-26T05:35:19;93670.66;;;1.63;74.64
26978;BME280;56314;48.088;11.642;2024-02-26T05:37:44;93664.94;;;1.58;75.62
26978;BME280;56314;48.088;11.642;2024-02-26T05:40:10;93663.38;;;1.68;76.57
26978;BME280;56314;48.088;11.642;2024-02-26T05:42:36;93663.09;;;1.60;76.16
26978;BME280;56314;48.088;11.642;2024-02-26T05:45:01;93661.88;;;1.53;77.76
26978;BME280;56314;48.088;11.642;2024-02-26T05:47:34;93664.25;;;1.56;76.38
26978;BME280;56314;48.088;11.642;2024-02-26T05:50:00;93674.81;;;1.53;77.20
26978;BME280;56314;48.088;11.642;2024-02-26T05:52:26;93676.47;;;1.54;77.52
26978;BME280;56314;48.088;11.642;2024-02-26T05:54:52;93676.47;;;1.54;78.84
26978;BME280;56314;48.088;11.642;2024-02-26T05:57:18;93682.84;;;1.61;78.96
26978;BME280;56314;48.088;11.642;2024-02-26T05:59:44;93682.75;;;1.63;79.00
26978;BME280;56314;48.088;11.642;2024-02-26T06:02:09;93681.31;;;1.59;78.52
26978;BME280;56314;48.088;11.642;2024-02-26T06:04:35;93684.84;;;1.58;77.16
26978;BME280;56314;48.088;11.642;2024-02-26T06:07:00;93686.69;;;1.56;77.12
26978;BME280;56314;48.088;11.642;2024-02-26T06:09:25;93689.81;;;1.61;75.58
26978;BME280;56314;48.088;11.642;2024-02-26T06:11:51;93693.50;;;1.69;74.19
26978;BME280;56314;48.088;11.642;2024-02-26T06:14:16;93693.09;;;1.76;72.49
26978;BME280;56314;48.088;11.642;2024-02-26T06:16:44;93690.16;;;1.80;72.29
26978;BME280;56314;48.088;11.642;2024-02-26T06:19:09;93694.47;;;1.93;71.79
26978;BME280;56314;48.088;11.642;2024-02-26T06:21:34;93696.63;;;1.99;70.50
26978;BME280;56314;48.088;11.642;2024-02-26T06:24:01;93692.88;;;2.03;70.29
26978;BME280;56314;48.088;11.642;2024-02-26T06:26:26;93698.78;;;2.05;71.31
26978;BME280;56314;48.088;11.642;2024-02-26T06:28:54;93700.50;;;2.18;71.11
26978;BME280;56314;48.088;11.642;2024-02-26T06:31:20;93705.16;;;2.25;70.57
26978;BME280;56314;48.088;11.642;2024-02-26T06:33:47;93709.28;;;2.28;69.36
26978;BME280;56314;48.088;11.642;2024-02-26T06:36:13;93711.31;;;2.36;71.26
26978;BME280;56314;48.088;11.642;2024-02-26T06:38:38;93717.81;;;2.41;71.77
26978;BME280;56314;48.088;11.642;2024-02-26T06:41:03;93719.25;;;2.45;71.36
26978;BME280;56314;48.088;11.642;2024-02-26T06:43:29;93722.50;;;2.60;70.59
26978;BME280;56314;48.088;11.642;2024-02-26T06:45:54;93725.09;;;2.60;71.10
26978;BME280;56314;48.088;11.642;2024-02-26T06:48:19;93717.31;;;2.60;70.68
26978;BME280;56314;48.088;11.642;2024-02-26T06:50:45;93718.50;;;2.68;69.47
26978;BME280;56314;48.088;11.642;2024-02-26T06:53:10;93723.72;;;2.79;69.59
26978;BME280;56314;48.088;11.642;2024-02-26T06:55:35;93732.47;;;2.89;69.52
26978;BME280;56314;48.088;11.642;2024-02-26T06:58:02;93734.63;;;2.96;68.79
26978;BME280;56314;48.088;11.642;2024-02-26T07:00:28;93752.44;;;3.00;69.82
26978;BME280;56314;48.088;11.642;2024-02-26T07:02:53;93748.34;;;3.09;69.88
26978;BME280;56314;48.088;11.642;2024-02-26T07:05:18;93740.25;;;3.25;69.07
26978;BME280;56314;48.088;11.642;2024-02-26T07:07:44;93736.16;;;3.34;66.60
26978;BME280;56314;48.088;11.642;2024-02-26T07:10:10;93736.50;;;3.41;65.32
26978;BME280;56314;48.088;11.642;2024-02-26T07:12:38;93734.75;;;3.52;65.67
26978;BME280;56314;48.088;11.642;2024-02-26T07:15:04;93739.13;;;3.63;66.46
26978;BME280;56314;48.088;11.642;2024-02-26T07:17:30;93740.06;;;3.74;68.00
26978;BME280;56314;48.088;11.642;2024-02-26T07:19:55;93743.47;;;3.85;66.30
26978;BME280;56314;48.088;11.642;2024-02-26T07:22:21;93743.50;;;3.97;65.80
26978;BME280;56314;48.088;11.642;2024-02-26T07:24:46;93750.56;;;4.06;64.25
26978;BME280;56314;48.088;11.642;2024-02-26T07:27:11;93743.72;;;4.05;62.93
26978;BME280;56314;48.088;11.642;2024-02-26T07:29:38;93741.47;;;4.12;63.29
26978;BME280;56314;48.088;11.642;2024-02-26T07:32:04;93746.06;;;4.20;63.86
26978;BME280;56314;48.088;11.642;2024-02-26T07:34:30;93741.09;;;4.28;64.12
26978;BME280;56314;48.088;11.642;2024-02-26T07:36:56;93734.91;;;4.40;64.52
26978;BME280;56314;48.088;11.642;2024-02-26T07:39:22;93734.03;;;4.51;61.96
26978;BME280;56314;48.088;11.642;2024-02-26T07:41:47;93734.22;;;4.71;61.57
26978;BME280;56314;48.088;11.642;2024-02-26T07:44:15;93729.75;;;4.94;61.36
26978;BME280;56314;48.088;11.642;2024-02-26T07:46:40;93733.47;;;5.13;61.45
26978;BME280;56314;48.088;11.642;2024-02-26T07:49:06;93748.94;;;5.35;60.45
26978;BME280;56314;48.088;11.642;2024-02-26T07:51:31;93746.09;;;5.38;59.71
26978;BME280;56314;48.088;11.642;2024-02-26T07:53:57;93752.56;;;5.44;60.00
26978;BME280;56314;48.088;11.642;2024-02-26T07:56:22;93762.06;;;5.55;60.26
26978;BME280;56314;48.088;11.642;2024-02-26T07:58:47;93768.75;;;5.69;60.34
26978;BME280;56314;48.088;11.642;2024-02-26T08:01:13;93774.69;;;5.81;60.51
26978;BME280;56314;48.088;11.642;2024-02-26T08:03:39;93771.53;;;5.77;61.66
26978;BME280;56314;48.088;11.642;2024-02-26T08:06:05;93777.94;;;5.73;62.16
26978;BME280;56314;48.088;11.642;2024-02-26T08:08:30;93770.66;;;5.67;60.57
26978;BME280;56314;48.088;11.642;2024-02-26T08:10:55;93770.19;;;5.62;59.97
26978;BME280;56314;48.088;11.642;2024-02-26T08:13:21;93770.34;;;5.60;60.18
26978;BME280;56314;48.088;11.642;2024-02-26T08:15:46;93762.53;;;5.60;59.53
26978;BME280;56314;48.088;11.642;2024-02-26T08:18:12;93763.00;;;5.54;58.81
26978;BME280;56314;48.088;11.642;2024-02-26T08:20:37;93757.50;;;5.47;58.44
26978;BME280;56314;48.088;11.642;2024-02-26T08:23:03;93761.00;;;5.36;59.58
26978;BME280;56314;48.088;11.642;2024-02-26T08:25:28;93757.94;;;5.31;60.28
26978;BME280;56314;48.088;11.642;2024-02-26T08:27:53;93758.34;;;5.27;61.42
26978;BME280;56314;48.088;11.642;2024-02-26T08:30:19;93750.28;;;5.30;62.34
26978;BME280;56314;48.088;11.642;2024-02-26T08:32:45;93757.22;;;5.41;61.20
26978;BME280;56314;48.088;11.642;2024-02-26T08:35:11;93757.13;;;5.52;62.44
26978;BME280;56314;48.088;11.642;2024-02-26T08:37:36;93762.69;;;5.68;62.35
26978;BME280;56314;48.088;11.642;2024-02-26T08:40:02;93764.97;;;5.83;61.32
26978;BME280;56314;48.088;11.642;2024-02-26T08:42:29;93774.34;;;5.95;59.53
26978;BME280;56314;48.088;11.642;2024-02-26T08:44:54;93768.88;;;5.98;59.70
26978;BME280;56314;48.088;11.642;2024-02-26T08:47:20;93769.91;;;6.07;59.43
26978;BME280;56314;48.088;11.642;2024-02-26T08:49:45;93774.63;;;6.23;59.17
26978;BME280;56314;48.088;11.642;2024-02-26T08:52:11;93780.03;;;6.41;60.02
26978;BME280;56314;48.088;11.642;2024-02-26T08:54:37;93783.25;;;6.55;59.25
26978;BME280;56314;48.088;11.642;2024-02-26T08:57:03;93769.66;;;6.71;58.78
26978;BME280;56314;48.088;11.642;2024-02-26T08:59:28;93773.13;;;6.81;58.25
26978;BME280;56314;48.088;11.642;2024-02-26T09:01:54;93765.44;;;6.99;56.68
26978;BME280;56314;48.088;11.642;2024-02-26T09:04:19;93768.72;;;7.11;56.80
26978;BME280;56314;48.088;11.642;2024-02-26T09:06:44;93770.78;;;7.17;56.71
26978;BME280;56314;48.088;11.642;2024-02-26T09:09:10;93779.59;;;7.16;56.94
26978;BME280;56314;48.088;11.642;2024-02-26T09:11:36;93773.41;;;7.17;56.68
26978;BME280;56314;48.088;11.642;2024-02-26T09:14:01;93774.66;;;7.23;56.83
26978;BME280;56314;48.088;11.642;2024-02-26T09:16:27;93778.88;;;7.34;56.73
26978;BME280;56314;48.088;11.642;2024-02-26T09:18:52;93768.59;;;7.42;57.49
26978;BME280;56314;48.088;11.642;2024-02-26T09:21:17;93772.00;;;7.62;57.62
26978;BME280;56314;48.088;11.642;2024-02-26T09:23:48;93781.44;;;7.73;56.79
26978;BME280;56314;48.088;11.642;2024-02-26T09:26:14;93766.25;;;7.96;55.80
26978;BME280;56314;48.088;11.642;2024-02-26T09:28:39;93769.09;;;8.13;56.29
26978;BME280;56314;48.088;11.642;2024-02-26T09:31:04;93762.81;;;8.34;56.25
26978;BME280;56314;48.088;11.642;2024-02-26T09:33:32;93765.88;;;8.57;54.67
26978;BME280;56314;48.088;11.642;2024-02-26T09:35:57;93764.13;;;8.75;53.68
26978;BME280;56314;48.088;11.642;2024-02-26T09:38:22;93768.88;;;8.90;52.46
26978;BME280;56314;48.088;11.642;2024-02-26T09:40:49;93774.19;;;8.98;52.28
26978;BME280;56314;48.088;11.642;2024-02-26T09:43:14;93763.25;;;9.03;52.31
26978;BME280;56314;48.088;11.642;2024-02-26T09:45:42;93767.81;;;9.01;51.66
26978;BME280;56314;48.088;11.642;2024-02-26T09:48:08;93764.84;;;9.14;52.39
26978;BME280;56314;48.088;11.642;2024-02-26T09:50:35;93768.69;;;9.64;51.24
26978;BME280;56314;48.088;11.642;2024-02-26T09:53:01;93758.09;;;10.69;49.60
26978;BME280;56314;48.088;11.642;2024-02-26T09:55:28;93753.25;;;11.74;47.30
26978;BME280;56314;48.088;11.642;2024-02-26T09:57:53;93753.94;;;11.84;45.81
26978;BME280;56314;48.088;11.642;2024-02-26T10:00:21;93745.06;;;11.52;46.26
26978;BME280;56314;48.088;11.642;2024-02-26T10:02:47;93757.84;;;10.97;46.98
26978;BME280;56314;48.088;11.642;2024-02-26T10:05:18;93752.75;;;10.44;47.40
26978;BME280;56314;48.088;11.642;2024-02-26T10:07:46;93753.56;;;10.10;48.32
26978;BME280;56314;48.088;11.642;2024-02-26T10:10:14;93750.75;;;10.12;47.59
26978;BME280;56314;48.088;11.642;2024-02-26T10:12:39;93753.56;;;9.84;48.04
26978;BME280;56314;48.088;11.642;2024-02-26T10:15:05;93751.00;;;9.66;48.54
26978;BME280;56314;48.088;11.642;2024-02-26T10:17:30;93752.94;;;9.64;49.39
26978;BME280;56314;48.088;11.642;2024-02-26T10:20:11;93753.66;;;9.48;50.65
26978;BME280;56314;48.088;11.642;2024-02-26T10:22:36;93743.47;;;9.45;50.17
26978;BME280;56314;48.088;11.642;2024-02-26T10:25:03;93746.03;;;9.36;50.46
26978;BME280;56314;48.088;11.642;2024-02-26T10:27:28;93742.22;;;9.31;49.70
26978;BME280;56314;48.088;11.642;2024-02-26T10:29:56;93744.97;;;9.29;49.95
26978;BME280;56314;48.088;11.642;2024-02-26T10:32:22;93743.19;;;9.30;50.25
26978;BME280;56314;48.088;11.642;2024-02-26T10:34:47;93740.41;;;9.31;50.01
26978;BME280;56314;48.088;11.642;2024-02-26T10:37:13;93734.50;;;9.29;50.28
26978;BME280;56314;48.088;11.642;2024-02-26T10:39:39;93734.13;;;9.42;49.81
26978;BME280;56314;48.088;11.642;2024-02-26T10:42:04;93729.69;;;9.43;49.79
26978;BME280;56314;48.088;11.642;2024-02-26T10:44:34;93723.75;;;9.59;49.60
26978;BME280;56314;48.088;11.642;2024-02-26T10:47:00;93713.00;;;9.70;49.54
26978;BME280;56314;48.088;11.642;2024-02-26T10:49:25;93717.91;;;9.99;48.93
26978;BME280;56314;48.088;11.642;2024-02-26T10:51:55;93717.91;;;10.34;47.84
26978;BME280;56314;48.088;11.642;2024-02-26T10:54:23;93718.81;;;10.51;46.46
26978;BME280;56314;48.088;11.642;2024-02-26T10:56:51;93723.03;;;10.87;46.45
26978;BME280;56314;48.088;11.642;2024-02-26T10:59:17;93726.31;;;11.05;45.43
26978;BME280;56314;48.088;11.642;2024-02-26T11:01:48;93719.44;;;11.29;45.50
26978;BME280;56314;48.088;11.642;2024-02-26T11:04:16;93734.38;;;11.62;44.98
26978;BME280;56314;48.088;11.642;2024-02-26T11:06:42;93730.63;;;11.73;45.08
26978;BME280;56314;48.088;11.642;2024-02-26T11:09:08;93743.03;;;12.20;43.68
26978;BME280;56314;48.088;11.642;2024-02-26T11:11:38;93738.31;;;12.55;42.82
26978;BME280;56314;48.088;11.642;2024-02-26T11:14:06;93741.50;;;12.74;42.24
26978;BME280;56314;48.088;11.642;2024-02-26T11:16:35;93733.28;;;13.23;42.60
26978;BME280;56314;48.088;11.642;2024-02-26T11:19:02;93745.88;;;13.36;40.67
26978;BME280;56314;48.088;11.642;2024-02-26T11:21:27;93743.56;;;13.42;40.38
26978;BME280;56314;48.088;11.642;2024-02-26T11:24:05;93749.56;;;13.74;40.99
26978;BME280;56314;48.088;11.642;2024-02-26T11:26:33;93738.88;;;13.90;39.15
26978;BME280;56314;48.088;11.642;2024-02-26T11:28:59;93744.69;;;13.70;38.67
26978;BME280;56314;48.088;11.642;2024-02-26T11:31:26;93755.34;;;13.54;39.29
26978;BME280;56314;48.088;11.642;2024-02-26T11:33:53;93753.31;;;13.33;39.22
26978;BME280;56314;48.088;11.642;2024-02-26T11:36:19;93752.22;;;13.27;40.66
26978;BME280;56314;48.088;11.642;2024-02-26T11:38:46;93748.50;;;13.45;39.43
26978;BME280;56314;48.088;11.642;2024-02-26T11:41:15;93742.41;;;13.82;38.95
26978;BME280;56314;48.088;11.642;2024-02-26T11:43:53;93736.69;;;13.79;38.70
26978;BME280;56314;48.088;11.642;2024-02-26T11:48:54;93734.91;;;14.54;37.27
26978;BME280;56314;48.088;11.642;2024-02-26T11:51:25;93721.53;;;14.92;36.35
26978;BME280;56314;48.088;11.642;2024-02-26T11:53:51;93720.53;;;14.93;36.02
26978;BME280;56314;48.088;11.642;2024-02-26T11:58:45;93717.19;;;15.43;35.69
26978;BME280;56314;48.088;11.642;2024-02-26T12:04:14;93711.88;;;15.65;35.41
26978;BME280;56314;48.088;11.642;2024-02-26T12:09:42;93708.53;;;15.34;37.56
26978;BME280;56314;48.088;11.642;2024-02-26T12:12:09;93704.09;;;15.13;36.48
26978;BME280;56314;48.088;11.642;2024-02-26T12:14:39;93710.97;;;14.92;37.20
26978;BME280;56314;48.088;11.642;2024-02-26T12:17:06;93706.38;;;14.65;37.30
26978;BME280;56314;48.088;11.642;2024-02-26T12:19:34;93706.41;;;14.35;38.46
26978;BME280;56314;48.088;11.642;2024-02-26T12:22:00;93706.88;;;13.93;37.19
26978;BME280;56314;48.088;11.642;2024-02-26T12:24:25;93707.38;;;13.74;36.64
26978;BME280;56314;48.088;11.642;2024-02-26T12:26:51;93710.88;;;13.51;37.74
26978;BME280;56314;48.088;11.642;2024-02-26T12:29:16;93712.59;;;13.35;38.24
26978;BME280;56314;48.088;11.642;2024-02-26T12:31:42;93724.22;;;13.26;38.22
26978;BME280;56314;48.088;11.642;2024-02-26T12:34:07;93720.47;;;13.20;36.71
26978;BME280;56314;48.088;11.642;2024-02-26T12:36:35;93734.63;;;13.19;36.14
26978;BME280;56314;48.088;11.642;2024-02-26T12:39:02;93742.84;;;13.24;37.28
26978;BME280;56314;48.088;11.642;2024-02-26T12:41:31;93745.38;;;13.64;37.96
26978;BME280;56314;48.088;11.642;2024-02-26T12:43:57;93748.66;;;13.66;38.30
26978;BME280;56314;48.088;11.642;2024-02-26T12:46:23;93751.72;;;13.55;37.95
26978;BME280;56314;48.088;11.642;2024-02-26T12:48:48;93741.66;;;13.27;37.99
26978;BME280;56314;48.088;11.642;2024-02-26T12:51:16;93754.56;;;13.22;38.65
26978;BME280;56314;48.088;11.642;2024-02-26T12:53:42;93739.78;;;13.13;37.71
26978;BME280;56314;48.088;11.642;2024-02-26T12:56:09;93747.94;;;13.26;37.64
26978;BME280;56314;48.088;11.642;2024-02-26T12:58:36;93739.53;;;13.92;37.03
26978;BME280;56314;48.088;11.642;2024-02-26T13:01:03;93752.22;;;14.72;35.85
26978;BME280;56314;48.088;11.642;2024-02-26T13:03:30;93742.63;;;15.44;33.39